createdAt,value
2023-02-03T00:01:30.271Z,4.22
2023-02-03T00:03:56.613Z,4.47
2023-02-03T00:06:23.111Z,4.68
2023-02-03T00:08:52.372Z,4.38
2023-02-03T00:11:18.685Z,4.03
2023-02-03T00:13:45.079Z,4.95
2023-02-03T00:16:11.482Z,4.00
2023-02-03T00:18:37.804Z,4.63
2023-02-03T00:21:04.195Z,4.60
2023-02-03T00:23:30.471Z,4.30
2023-02-03T00:25:56.743Z,4.70
2023-02-03T00:28:23.055Z,4.40
2023-02-03T00:30:49.352Z,3.92
2023-02-03T00:33:15.685Z,4.45
2023-02-03T00:35:41.972Z,3.92
2023-02-03T00:38:08.277Z,3.67
2023-02-03T00:40:34.550Z,3.88
2023-02-03T00:43:00.842Z,3.72
2023-02-03T00:45:27.144Z,3.63
2023-02-03T00:47:53.441Z,3.90
2023-02-03T00:50:19.765Z,3.97
2023-02-03T00:52:46.078Z,3.75
2023-02-03T00:55:12.381Z,3.70
2023-02-03T00:57:38.707Z,3.80
2023-02-03T01:00:06.221Z,4.25
2023-02-03T01:02:32.692Z,3.70
2023-02-03T01:04:59.032Z,3.75
2023-02-03T01:07:25.325Z,4.07
2023-02-03T01:09:51.657Z,5.22
2023-02-03T01:12:18.001Z,3.83
2023-02-03T01:14:44.279Z,3.70
2023-02-03T01:17:10.601Z,3.75
2023-02-03T01:19:36.915Z,4.13
2023-02-03T01:22:03.273Z,3.75
2023-02-03T01:24:30.587Z,4.10
2023-02-03T01:26:56.929Z,3.20
2023-02-03T01:29:23.336Z,3.17
2023-02-03T01:31:49.720Z,2.78
2023-02-03T01:34:16.370Z,3.13
2023-02-03T01:36:43.016Z,2.72
2023-02-03T01:39:10.418Z,2.80
2023-02-03T01:41:38.713Z,2.58
2023-02-03T01:44:42.781Z,2.80
2023-02-03T01:47:18.514Z,2.88
2023-02-03T01:49:52.274Z,2.97
2023-02-03T01:52:18.978Z,2.50
2023-02-03T01:54:48.243Z,2.45
2023-02-03T01:57:21.384Z,2.20
2023-02-03T01:59:49.717Z,2.40
2023-02-03T02:02:16.101Z,2.70
2023-02-03T02:05:01.238Z,2.25
2023-02-03T02:07:28.683Z,2.42
2023-02-03T02:09:56.345Z,2.38
2023-02-03T02:12:22.739Z,2.50
2023-02-03T02:14:49.127Z,2.08
2023-02-03T02:17:35.616Z,2.10
2023-02-03T02:20:23.088Z,2.50
2023-02-03T02:23:07.168Z,2.13
2023-02-03T02:25:52.026Z,2.30
2023-02-03T02:28:32.300Z,1.80
2023-02-03T02:31:36.664Z,2.00
2023-02-03T02:34:14.551Z,1.90
2023-02-03T02:36:57.062Z,2.13
2023-02-03T02:39:37.736Z,1.75
2023-02-03T02:42:41.305Z,2.40
2023-02-03T02:45:17.383Z,1.95
2023-02-03T02:47:44.435Z,2.08
2023-02-03T02:50:18.156Z,1.83
2023-02-03T02:52:46.847Z,2.10
2023-02-03T02:55:18.785Z,1.80
2023-02-03T02:57:47.390Z,1.92
2023-02-03T03:00:14.607Z,2.13
2023-02-03T03:02:40.967Z,1.50
2023-02-03T03:05:10.598Z,1.83
2023-02-03T03:07:45.382Z,1.45
2023-02-03T03:10:16.008Z,2.00
2023-02-03T03:12:50.116Z,1.73
2023-02-03T03:15:30.905Z,1.40
2023-02-03T03:18:17.783Z,1.58
2023-02-03T03:20:47.424Z,1.52
2023-02-03T03:23:37.674Z,1.48
2023-02-03T03:28:49.355Z,2.03
2023-02-03T03:31:18.927Z,1.60
2023-02-03T03:33:47.432Z,1.70
2023-02-03T03:36:26.063Z,1.33
2023-02-03T03:39:24.222Z,1.38
2023-02-03T03:42:12.871Z,1.20
2023-02-03T03:44:52.736Z,1.40
2023-02-03T03:47:30.327Z,1.08
2023-02-03T03:49:59.821Z,1.30
2023-02-03T03:52:31.272Z,1.20
2023-02-03T03:55:00.996Z,1.45
2023-02-03T03:57:39.543Z,1.50
2023-02-03T04:00:09.093Z,1.30
2023-02-03T04:02:39.095Z,1.30
2023-02-03T04:05:06.708Z,1.17
2023-02-03T04:07:44.680Z,1.20
2023-02-03T04:10:33.674Z,1.10
2023-02-03T04:13:00.674Z,1.13
2023-02-03T04:15:27.567Z,1.50
2023-02-03T04:17:54.108Z,1.30
2023-02-03T04:20:21.123Z,1.30
2023-02-03T04:22:47.465Z,1.30
2023-02-03T04:25:14.129Z,1.27
2023-02-03T04:27:40.495Z,1.20
2023-02-03T04:30:07.796Z,1.17
2023-02-03T04:32:34.126Z,1.35
2023-02-03T04:35:00.467Z,1.45
2023-02-03T04:37:27.159Z,1.30
2023-02-03T04:39:54.523Z,1.25
2023-02-03T04:42:21.853Z,1.50
2023-02-03T04:44:48.663Z,1.65
2023-02-03T04:47:15.801Z,1.40
2023-02-03T04:49:42.151Z,1.40
2023-02-03T04:52:08.605Z,1.50
2023-02-03T04:54:34.908Z,1.40
2023-02-03T04:57:01.521Z,1.45
2023-02-03T04:59:28.165Z,1.42
2023-02-03T05:01:54.481Z,1.40
2023-02-03T05:04:20.856Z,1.60
2023-02-03T05:06:47.184Z,2.00
2023-02-03T05:09:14.438Z,1.70
2023-02-03T05:11:40.848Z,1.50
2023-02-03T05:14:07.398Z,1.50
2023-02-03T05:16:33.724Z,1.30
2023-02-03T05:19:00.102Z,1.73
2023-02-03T05:21:26.422Z,1.25
2023-02-03T05:23:52.790Z,1.30
2023-02-03T05:26:19.082Z,1.40
2023-02-03T05:28:45.457Z,1.50
2023-02-03T05:31:11.992Z,1.40
2023-02-03T05:33:38.329Z,1.60
2023-02-03T05:36:04.872Z,1.63
2023-02-03T05:38:31.229Z,2.08
2023-02-03T05:40:57.708Z,1.30
2023-02-03T05:43:24.074Z,1.50
2023-02-03T05:45:50.449Z,1.65
2023-02-03T05:48:16.948Z,1.50
2023-02-03T05:50:43.297Z,1.63
2023-02-03T05:53:09.718Z,1.65
2023-02-03T05:55:36.499Z,1.80
2023-02-03T05:58:02.915Z,1.60
2023-02-03T06:00:30.014Z,1.70
2023-02-03T06:02:58.868Z,1.70
2023-02-03T06:05:26.199Z,1.63
2023-02-03T06:07:52.558Z,1.88
2023-02-03T06:10:19.099Z,1.50
2023-02-03T06:12:45.759Z,1.35
2023-02-03T06:15:12.465Z,1.65
2023-02-03T06:17:38.925Z,2.13
2023-02-03T06:20:06.940Z,1.52
2023-02-03T06:22:33.744Z,2.00
2023-02-03T06:25:00.088Z,1.60
2023-02-03T06:27:27.203Z,1.60
2023-02-03T06:29:53.515Z,1.98
2023-02-03T06:32:19.835Z,1.90
2023-02-03T06:34:46.133Z,1.98
2023-02-03T06:37:12.466Z,1.67
2023-02-03T06:39:38.780Z,1.60
2023-02-03T06:42:06.306Z,1.50
2023-02-03T06:44:32.659Z,1.50
2023-02-03T06:46:59.040Z,1.70
2023-02-03T06:49:25.505Z,1.58
2023-02-03T06:51:51.827Z,1.77
2023-02-03T06:54:18.204Z,1.67
2023-02-03T06:56:44.772Z,1.70
2023-02-03T06:59:11.072Z,2.17
2023-02-03T07:01:37.605Z,1.63
2023-02-03T07:04:04.617Z,1.85
2023-02-03T07:06:31.733Z,1.70
2023-02-03T07:09:00.698Z,1.98
2023-02-03T07:11:28.376Z,2.20
2023-02-03T07:13:54.736Z,1.80
2023-02-03T07:16:21.416Z,1.80
2023-02-03T07:18:48.517Z,1.90
2023-02-03T07:21:16.423Z,1.65
2023-02-03T07:23:43.001Z,1.45
2023-02-03T07:26:10.491Z,1.83
2023-02-03T07:28:37.230Z,1.63
2023-02-03T07:31:04.058Z,1.70
2023-02-03T07:33:31.323Z,1.98
2023-02-03T07:35:59.561Z,1.95
2023-02-03T07:38:28.009Z,1.70
2023-02-03T07:40:54.582Z,2.00
2023-02-03T07:43:21.047Z,2.15
2023-02-03T07:45:47.379Z,1.70
2023-02-03T07:48:13.835Z,1.73
2023-02-03T07:50:40.445Z,1.98
2023-02-03T07:53:07.679Z,1.85
2023-02-03T07:55:33.995Z,1.63
2023-02-03T07:58:03.129Z,2.00
2023-02-03T08:00:29.933Z,2.03
2023-02-03T08:02:56.420Z,1.90
2023-02-03T08:05:22.715Z,1.63
2023-02-03T08:07:49.048Z,2.10
2023-02-03T08:10:15.692Z,2.13
2023-02-03T08:12:44.003Z,1.77
2023-02-03T08:15:11.442Z,1.70
2023-02-03T08:17:37.873Z,1.73
2023-02-03T08:20:04.893Z,2.00
2023-02-03T08:22:31.190Z,1.70
2023-02-03T08:24:57.475Z,2.30
2023-02-03T08:27:23.933Z,2.15
2023-02-03T08:29:50.468Z,2.28
2023-02-03T08:32:19.888Z,1.85
2023-02-03T08:34:46.303Z,1.60
2023-02-03T08:37:15.332Z,1.98
2023-02-03T08:39:42.487Z,1.77
2023-02-03T08:42:09.380Z,2.20
2023-02-03T08:44:35.935Z,2.03
2023-02-03T08:47:02.515Z,2.63
2023-02-03T08:49:30.228Z,2.13
2023-02-03T08:51:58.003Z,1.98
2023-02-03T08:54:25.560Z,2.10
2023-02-03T08:56:52.022Z,1.67
2023-02-03T08:59:19.097Z,1.73
2023-02-03T09:01:45.800Z,2.10
2023-02-03T09:04:12.936Z,1.85
2023-02-03T09:06:39.599Z,1.73
2023-02-03T09:09:06.008Z,2.10
2023-02-03T09:11:32.480Z,1.95
2023-02-03T09:13:58.821Z,2.30
2023-02-03T09:16:25.485Z,2.10
2023-02-03T09:18:51.989Z,1.90
2023-02-03T09:21:33.030Z,1.95
2023-02-03T09:24:04.153Z,1.80
2023-02-03T09:26:30.691Z,2.00
2023-02-03T09:28:57.083Z,2.45
2023-02-03T09:31:23.520Z,1.98
2023-02-03T09:33:49.851Z,2.45
2023-02-03T09:36:16.260Z,2.15
2023-02-03T09:38:42.632Z,2.00
2023-02-03T09:41:15.028Z,2.28
2023-02-03T09:44:07.915Z,2.10
2023-02-03T09:46:41.587Z,2.10
2023-02-03T09:49:21.986Z,2.00
2023-02-03T09:52:15.394Z,2.15
2023-02-03T09:54:46.083Z,2.22
2023-02-03T09:57:26.200Z,2.35
2023-02-03T09:59:56.030Z,2.33
2023-02-03T10:02:29.939Z,2.40
2023-02-03T10:05:18.175Z,2.30
2023-02-03T10:08:06.810Z,2.50
2023-02-03T10:10:41.281Z,2.03
2023-02-03T10:13:26.382Z,2.20
2023-02-03T10:16:02.468Z,2.08
2023-02-03T10:18:33.650Z,2.28
2023-02-03T10:21:11.714Z,2.13
2023-02-03T10:23:41.508Z,1.90
2023-02-03T10:26:14.288Z,2.35
2023-02-03T10:28:50.546Z,2.40
2023-02-03T10:31:22.615Z,2.40
2023-02-03T10:34:00.011Z,1.90
2023-02-03T10:36:54.415Z,2.30
2023-02-03T10:39:36.311Z,2.25
2023-02-03T10:42:05.188Z,2.35
2023-02-03T10:44:39.963Z,2.00
2023-02-03T10:47:23.647Z,2.10
2023-02-03T10:49:52.731Z,2.10
2023-02-03T10:52:30.513Z,1.70
2023-02-03T10:54:57.597Z,2.35
2023-02-03T10:57:24.068Z,1.95
2023-02-03T10:59:50.461Z,2.33
2023-02-03T11:02:30.477Z,2.10
2023-02-03T11:05:28.918Z,2.30
2023-02-03T11:07:55.416Z,2.38
2023-02-03T11:10:35.296Z,2.53
2023-02-03T11:13:13.075Z,2.08
2023-02-03T11:15:51.303Z,1.95
2023-02-03T11:18:36.034Z,2.00
2023-02-03T11:21:19.698Z,2.15
2023-02-03T11:24:08.647Z,1.95
2023-02-03T11:27:01.922Z,1.73
2023-02-03T11:29:30.999Z,2.00
2023-02-03T11:32:01.038Z,2.20
2023-02-03T11:34:36.752Z,1.63
2023-02-03T11:37:32.987Z,1.70
2023-02-03T11:42:37.257Z,1.90
2023-02-03T11:45:28.125Z,1.95
2023-02-03T11:48:00.508Z,1.85
2023-02-03T11:50:31.649Z,1.73
2023-02-03T11:53:29.411Z,1.75
2023-02-03T11:56:14.620Z,2.10
2023-02-03T11:59:03.116Z,1.70
2023-02-03T12:01:59.031Z,1.80
2023-02-03T12:05:02.029Z,2.17
2023-02-03T12:07:43.897Z,2.13
2023-02-03T12:10:29.933Z,1.70
2023-02-03T12:13:14.636Z,1.80
2023-02-03T12:15:56.071Z,1.60
2023-02-03T12:18:40.874Z,1.83
2023-02-03T12:21:29.824Z,1.90
2023-02-03T12:24:07.903Z,1.80
2023-02-03T12:26:56.402Z,2.08
2023-02-03T12:29:32.449Z,1.92
2023-02-03T12:32:12.205Z,2.05
2023-02-03T12:34:59.658Z,1.98
2023-02-03T12:37:30.535Z,2.03
2023-02-03T12:40:06.376Z,2.45
2023-02-03T12:42:42.169Z,1.90
2023-02-03T12:45:08.505Z,2.05
2023-02-03T12:47:42.679Z,1.90
2023-02-03T12:50:23.837Z,1.83
2023-02-03T12:53:00.514Z,1.95
2023-02-03T12:55:36.953Z,1.80
2023-02-03T12:58:22.399Z,2.17
2023-02-03T13:00:54.461Z,2.55
2023-02-03T13:06:14.599Z,1.88
2023-02-03T13:08:50.516Z,2.20
2023-02-03T13:11:27.672Z,2.05
2023-02-03T13:14:26.272Z,2.28
2023-02-03T13:17:27.016Z,2.55
2023-02-03T13:19:59.934Z,2.53
2023-02-03T13:22:26.680Z,2.28
2023-02-03T13:25:00.826Z,2.33
2023-02-03T13:27:43.071Z,2.00
2023-02-03T13:30:09.432Z,2.17
2023-02-03T13:32:46.217Z,2.20
2023-02-03T13:35:34.357Z,2.78
2023-02-03T13:38:35.575Z,2.60
2023-02-03T13:41:08.831Z,2.45
2023-02-03T13:43:40.241Z,2.40
2023-02-03T13:46:19.361Z,2.47
2023-02-03T13:48:46.563Z,1.90
2023-02-03T13:51:20.339Z,2.67
2023-02-03T13:53:48.639Z,2.20
2023-02-03T13:56:22.627Z,2.38
2023-02-03T13:59:14.113Z,2.60
2023-02-03T14:01:41.716Z,2.75
2023-02-03T14:04:29.299Z,3.22
2023-02-03T14:06:58.813Z,2.65
2023-02-03T14:09:46.581Z,2.90
2023-02-03T14:12:15.715Z,2.28
2023-02-03T14:14:56.096Z,2.50
2023-02-03T14:17:34.413Z,2.45
2023-02-03T14:20:02.105Z,2.00
2023-02-03T14:22:30.155Z,2.28
2023-02-03T14:25:04.469Z,2.38
2023-02-03T14:27:31.579Z,2.95
2023-02-03T14:30:09.926Z,2.55
2023-02-03T14:32:59.488Z,2.25
2023-02-03T14:35:35.046Z,2.85
2023-02-03T14:38:09.155Z,2.10
2023-02-03T14:40:43.422Z,2.17
2023-02-03T14:43:33.297Z,2.75
2023-02-03T14:46:33.244Z,2.55
2023-02-03T14:49:17.071Z,2.78
2023-02-03T14:51:50.752Z,2.35
2023-02-03T14:54:35.224Z,2.40
2023-02-03T14:57:16.589Z,2.88
2023-02-03T14:59:47.657Z,2.60
2023-02-03T15:02:22.573Z,2.28
2023-02-03T15:04:49.327Z,2.75
2023-02-03T15:07:45.133Z,2.50
2023-02-03T15:10:49.899Z,3.22
2023-02-03T15:13:27.255Z,2.78
2023-02-03T15:15:56.471Z,2.40
2023-02-03T15:18:32.326Z,2.70
2023-02-03T15:20:59.122Z,2.97
2023-02-03T15:23:31.009Z,2.58
2023-02-03T15:26:12.842Z,3.13
2023-02-03T15:28:39.331Z,2.45
2023-02-03T15:31:09.445Z,2.60
2023-02-03T15:33:38.928Z,2.65
2023-02-03T15:36:15.821Z,2.60
2023-02-03T15:38:48.176Z,2.50
2023-02-03T15:41:23.256Z,2.25
2023-02-03T15:43:53.834Z,2.38
2023-02-03T15:46:28.940Z,2.83
2023-02-03T15:49:02.871Z,2.83
2023-02-03T15:51:55.400Z,2.92
2023-02-03T15:54:30.429Z,2.60
2023-02-03T15:57:06.860Z,2.85
2023-02-03T15:59:36.839Z,2.80
2023-02-03T16:02:17.410Z,2.25
2023-02-03T16:04:45.277Z,2.20
2023-02-03T16:07:29.914Z,2.47
2023-02-03T16:09:57.967Z,2.90
2023-02-03T16:12:29.052Z,2.47
2023-02-03T16:14:56.879Z,2.28
2023-02-03T16:17:37.111Z,2.95
2023-02-03T16:20:12.238Z,2.45
2023-02-03T16:22:39.867Z,3.08
2023-02-03T16:25:20.922Z,2.88
2023-02-03T16:28:10.538Z,2.67
2023-02-03T16:30:37.184Z,2.42
2023-02-03T16:33:09.477Z,2.55
2023-02-03T16:35:35.844Z,2.35
2023-02-03T16:38:16.321Z,2.85
2023-02-03T16:40:47.028Z,2.92
2023-02-03T16:43:16.055Z,2.95
2023-02-03T16:45:43.019Z,2.78
2023-02-03T16:48:11.519Z,2.65
2023-02-03T16:50:39.599Z,2.28
2023-02-03T16:53:11.991Z,2.40
2023-02-03T16:55:38.328Z,3.47
2023-02-03T16:58:04.685Z,2.53
2023-02-03T17:00:31.219Z,3.10
2023-02-03T17:02:58.681Z,2.38
2023-02-03T17:05:25.253Z,2.95
2023-02-03T17:07:51.611Z,2.95
2023-02-03T17:10:18.061Z,2.60
2023-02-03T17:12:44.445Z,3.03
2023-02-03T17:15:10.854Z,2.85
2023-02-03T17:17:37.304Z,2.30
2023-02-03T17:20:04.098Z,2.97
2023-02-03T17:22:30.538Z,3.25
2023-02-03T17:24:56.893Z,2.78
2023-02-03T17:27:23.270Z,3.03
2023-02-03T17:29:49.617Z,2.85
2023-02-03T17:32:16.081Z,2.97
2023-02-03T17:34:42.640Z,2.50
2023-02-03T17:37:09.047Z,3.38
2023-02-03T17:55:41.999Z,3.00
2023-02-03T17:58:08.788Z,2.35
2023-02-03T18:00:35.246Z,3.03
2023-02-03T18:03:01.582Z,2.53
2023-02-03T18:05:28.074Z,2.63
2023-02-03T18:07:54.711Z,2.35
2023-02-03T18:10:21.642Z,2.38
2023-02-03T18:12:48.161Z,2.72
2023-02-03T18:15:14.534Z,2.25
2023-02-03T18:17:40.888Z,3.20
2023-02-03T18:20:07.692Z,3.22
2023-02-03T18:22:34.095Z,2.75
2023-02-03T18:25:00.476Z,3.00
2023-02-03T18:27:27.106Z,2.90
2023-02-03T18:29:53.473Z,2.83
2023-02-03T18:32:19.804Z,3.20
2023-02-03T18:34:46.230Z,2.40
2023-02-03T18:37:12.592Z,2.72
2023-02-03T18:39:38.936Z,2.58
2023-02-03T18:42:05.492Z,3.08
2023-02-03T18:44:31.846Z,3.03
2023-02-03T18:46:58.664Z,2.47
2023-02-03T18:49:24.989Z,3.05
2023-02-03T18:51:51.404Z,3.17
2023-02-03T18:54:17.785Z,2.78
2023-02-03T18:56:44.140Z,2.72
2023-02-03T18:59:11.267Z,3.38
2023-02-03T19:01:38.649Z,2.40
2023-02-03T19:04:05.689Z,3.13
2023-02-03T19:06:33.716Z,2.67
2023-02-03T19:09:00.993Z,2.60
2023-02-03T19:11:27.508Z,2.80
2023-02-03T19:13:53.937Z,3.22
2023-02-03T19:16:20.714Z,2.38
2023-02-03T19:18:47.340Z,3.70
2023-02-03T19:21:14.172Z,2.47
2023-02-03T19:23:41.620Z,2.78
2023-02-03T19:26:08.499Z,2.55
2023-02-03T19:28:35.516Z,2.35
2023-02-03T19:31:07.843Z,2.72
2023-02-03T19:33:35.921Z,2.67
2023-02-03T19:36:02.965Z,2.35
2023-02-03T19:38:29.377Z,2.22
2023-02-03T19:40:55.848Z,2.40
2023-02-03T19:43:22.204Z,3.15
2023-02-03T19:45:48.602Z,3.17
2023-02-03T19:48:14.923Z,2.20
2023-02-03T19:50:41.349Z,3.10
2023-02-03T19:53:07.785Z,2.90
2023-02-03T19:55:34.229Z,2.45
2023-02-03T19:58:00.603Z,2.80
2023-02-03T20:00:28.149Z,3.33
2023-02-03T20:02:54.824Z,2.22
2023-02-03T20:05:21.666Z,2.92
2023-02-03T20:07:48.045Z,2.65
2023-02-03T20:10:14.588Z,2.40
2023-02-03T20:12:40.961Z,2.60
2023-02-03T20:15:07.899Z,2.30
2023-02-03T20:17:34.301Z,2.80
2023-02-03T20:20:00.667Z,2.78
2023-02-03T20:22:27.219Z,2.45
2023-02-03T20:24:53.551Z,3.05
2023-02-03T20:27:19.896Z,2.70
2023-02-03T20:29:46.291Z,2.55
2023-02-03T20:32:12.945Z,3.35
2023-02-03T20:34:39.268Z,2.50
2023-02-03T20:37:05.619Z,2.33
2023-02-03T20:39:32.043Z,2.25
2023-02-03T20:41:58.605Z,2.72
2023-02-03T20:44:25.019Z,2.83
2023-02-03T20:46:51.354Z,2.70
2023-02-03T20:49:17.783Z,2.40
2023-02-03T20:51:45.660Z,3.00
2023-02-03T20:54:20.756Z,2.33
2023-02-03T20:56:48.465Z,2.65
2023-02-03T20:59:19.195Z,2.00
2023-02-03T21:01:46.410Z,2.75
2023-02-03T21:04:17.871Z,2.63
2023-02-03T21:06:44.213Z,3.38
2023-02-03T21:09:16.120Z,2.83
2023-02-03T21:11:43.192Z,2.75
2023-02-03T21:14:28.963Z,2.70
2023-02-03T21:16:55.437Z,2.65
2023-02-03T21:19:28.794Z,2.70
2023-02-03T21:21:55.910Z,2.42
2023-02-03T21:24:31.943Z,3.50
2023-02-03T21:27:00.146Z,2.65
2023-02-03T21:29:32.884Z,2.92
2023-02-03T21:31:59.810Z,3.13
2023-02-03T21:34:32.199Z,2.30
2023-02-03T21:37:17.077Z,2.95
2023-02-03T21:39:43.508Z,2.70
2023-02-03T21:42:31.873Z,2.97
2023-02-03T21:44:58.210Z,2.50
2023-02-03T21:47:24.558Z,2.45
2023-02-03T21:49:50.944Z,3.63
2023-02-03T21:52:17.294Z,2.08
2023-02-03T21:54:43.649Z,2.67
2023-02-03T21:57:13.925Z,3.45
2023-02-03T21:59:41.211Z,2.97
2023-02-03T22:02:55.132Z,2.90
2023-02-03T22:05:21.473Z,2.20
2023-02-03T22:07:47.804Z,2.70
2023-02-03T22:10:14.238Z,2.08
2023-02-03T22:12:40.658Z,2.75
2023-02-03T22:15:07.404Z,3.05
2023-02-03T22:17:33.847Z,3.45
2023-02-03T22:20:00.194Z,1.83
2023-02-03T22:22:26.565Z,1.92
2023-02-03T22:24:52.898Z,2.80
2023-02-03T22:27:19.226Z,3.10
2023-02-03T22:29:45.558Z,2.45
2023-02-03T22:32:11.872Z,1.95
2023-02-03T22:34:38.188Z,2.67
2023-02-03T22:37:04.572Z,1.88
2023-02-03T22:39:30.921Z,2.90
2023-02-03T22:41:57.307Z,2.70
2023-02-03T22:44:23.724Z,2.33
2023-02-03T22:46:50.030Z,2.38
2023-02-03T22:49:16.368Z,2.40
2023-02-03T22:51:42.702Z,2.55
2023-02-03T22:54:09.020Z,3.08
2023-02-03T22:56:35.355Z,3.10
2023-02-03T22:59:01.695Z,2.72
2023-02-03T23:01:28.083Z,2.80
2023-02-03T23:03:54.437Z,2.92
2023-02-03T23:06:20.758Z,2.55
2023-02-03T23:08:47.106Z,2.53
2023-02-03T23:11:13.477Z,2.70
2023-02-03T23:13:39.816Z,3.08
2023-02-03T23:16:06.315Z,2.85
2023-02-03T23:18:32.715Z,3.08
2023-02-03T23:20:59.086Z,2.60
2023-02-03T23:23:25.424Z,2.35
2023-02-03T23:25:51.789Z,3.03
2023-02-03T23:28:18.214Z,2.60
2023-02-03T23:30:44.639Z,2.80
2023-02-03T23:33:11.039Z,2.55
2023-02-03T23:35:37.367Z,2.78
2023-02-03T23:38:03.823Z,2.33
2023-02-03T23:40:30.415Z,2.00
2023-02-03T23:42:57.008Z,2.92
2023-02-03T23:45:23.342Z,3.22
2023-02-03T23:47:49.765Z,2.65
2023-02-03T23:50:17.286Z,2.50
2023-02-03T23:52:43.582Z,3.35
2023-02-03T23:55:18.069Z,2.60
2023-02-03T23:57:45.036Z,2.50
